createdAt,value
2017-07-05T00:00:31.883Z,15.26
2017-07-05T00:01:31.854Z,15.34
2017-07-05T00:02:31.963Z,15.2
2017-07-05T00:03:31.977Z,15.25
2017-07-05T00:04:31.987Z,15.22
2017-07-05T00:05:32.267Z,15.2
2017-07-05T00:06:32.070Z,15.25
2017-07-05T00:07:32.098Z,15.16
2017-07-05T00:08:32.108Z,15.12
2017-07-05T00:09:32.194Z,15.05
2017-07-05T00:10:32.431Z,15.18
2017-07-05T00:11:32.256Z,15.07
2017-07-05T00:12:32.290Z,15.13
2017-07-05T00:13:32.287Z,15.04
2017-07-05T00:14:32.563Z,15
2017-07-05T00:15:32.376Z,14.93
2017-07-05T00:16:32.399Z,15.01
2017-07-05T00:17:32.383Z,14.97
2017-07-05T00:18:32.494Z,14.97
2017-07-05T00:19:32.507Z,15.02
2017-07-05T00:20:32.521Z,14.94
2017-07-05T00:21:32.567Z,15.02
2017-07-05T00:22:32.622Z,14.94
2017-07-05T00:23:32.629Z,15.04
2017-07-05T00:24:32.666Z,15.02
2017-07-05T00:25:32.918Z,15
2017-07-05T00:26:32.761Z,14.93
2017-07-05T00:27:32.750Z,14.97
2017-07-05T00:28:32.801Z,14.95
2017-07-05T00:29:32.838Z,14.95
2017-07-05T00:30:32.865Z,14.95
2017-07-05T00:31:32.894Z,14.95
2017-07-05T00:32:32.938Z,15.01
2017-07-05T00:33:33.001Z,14.98
2017-07-05T00:34:33.000Z,14.97
2017-07-05T00:35:33.064Z,15.01
2017-07-05T00:36:33.482Z,14.95
2017-07-05T00:37:33.104Z,14.98
2017-07-05T00:38:33.101Z,14.95
2017-07-05T00:39:33.196Z,15.01
2017-07-05T00:40:33.189Z,15
2017-07-05T00:41:33.206Z,14.97
2017-07-05T00:42:33.269Z,14.89
2017-07-05T00:43:33.329Z,14.9
2017-07-05T00:44:33.331Z,14.94
2017-07-05T00:45:33.378Z,15
2017-07-05T00:46:33.399Z,14.85
2017-07-05T00:47:33.429Z,14.94
2017-07-05T00:48:33.472Z,14.79
2017-07-05T00:49:33.505Z,14.83
2017-07-05T00:50:33.508Z,14.83
2017-07-05T00:51:33.552Z,14.89
2017-07-05T00:52:33.579Z,14.83
2017-07-05T00:53:33.608Z,14.79
2017-07-05T00:54:33.660Z,14.8
2017-07-05T00:55:33.705Z,14.8
2017-07-05T00:56:33.720Z,14.79
2017-07-05T00:57:33.777Z,14.77
2017-07-05T00:58:33.835Z,14.71
2017-07-05T00:59:33.842Z,14.7
2017-07-05T01:00:33.895Z,14.74
2017-07-05T01:01:33.892Z,14.7
2017-07-05T01:02:33.941Z,14.69
2017-07-05T01:03:33.971Z,14.79
2017-07-05T01:04:34.011Z,14.82
2017-07-05T01:05:34.042Z,14.85
2017-07-05T01:06:34.047Z,14.85
2017-07-05T01:07:34.124Z,14.77
2017-07-05T01:08:34.115Z,14.85
2017-07-05T01:09:34.177Z,14.83
2017-07-05T01:10:34.172Z,14.87
2017-07-05T01:11:34.241Z,14.9
2017-07-05T01:12:34.267Z,14.93
2017-07-05T01:13:34.303Z,14.95
2017-07-05T01:14:34.339Z,14.95
2017-07-05T01:15:34.398Z,14.93
2017-07-05T01:16:34.416Z,14.98
2017-07-05T01:17:34.431Z,14.98
2017-07-05T01:18:34.438Z,14.9
2017-07-05T01:19:34.533Z,14.94
2017-07-05T01:20:34.545Z,14.93
2017-07-05T01:21:34.563Z,14.85
2017-07-05T01:22:34.575Z,14.83
2017-07-05T01:23:34.665Z,14.8
2017-07-05T01:24:34.657Z,14.82
2017-07-05T01:25:34.708Z,14.79
2017-07-05T01:26:34.733Z,14.8
2017-07-05T01:27:34.751Z,14.85
2017-07-05T01:28:34.825Z,14.83
2017-07-05T01:29:34.849Z,14.86
2017-07-05T01:30:34.844Z,14.95
2017-07-05T01:31:34.905Z,14.94
2017-07-05T01:32:34.959Z,14.94
2017-07-05T01:33:34.963Z,14.95
2017-07-05T01:34:34.991Z,15.02
2017-07-05T01:35:34.983Z,15
2017-07-05T01:36:35.022Z,15.05
2017-07-05T01:37:35.122Z,15.02
2017-07-05T01:38:35.162Z,15
2017-07-05T01:39:35.155Z,15.02
2017-07-05T01:40:35.172Z,15.05
2017-07-05T01:41:35.204Z,15.07
2017-07-05T01:42:35.270Z,15.04
2017-07-05T01:43:35.334Z,14.89
2017-07-05T01:44:35.372Z,15.02
2017-07-05T01:45:35.369Z,14.93
2017-07-05T01:46:35.426Z,15.04
2017-07-05T01:47:35.454Z,15.01
2017-07-05T01:48:35.457Z,15.07
2017-07-05T01:49:35.480Z,15.02
2017-07-05T01:50:35.561Z,15.05
2017-07-05T01:51:35.575Z,15.02
2017-07-05T01:52:35.625Z,14.98
2017-07-05T01:53:35.619Z,15.01
2017-07-05T01:54:35.663Z,14.9
2017-07-05T01:55:35.673Z,15.02
2017-07-05T01:56:35.743Z,14.98
2017-07-05T01:57:35.749Z,14.93
2017-07-05T01:58:35.833Z,14.93
2017-07-05T01:59:35.865Z,14.94
2017-07-05T02:00:35.870Z,14.93
2017-07-05T02:01:35.893Z,14.9
2017-07-05T02:02:35.932Z,14.9
2017-07-05T02:03:35.962Z,14.93
2017-07-05T02:04:36.002Z,14.95
2017-07-05T02:05:36.064Z,14.97
2017-07-05T02:06:36.068Z,15
2017-07-05T02:07:36.113Z,14.94
2017-07-05T02:08:36.128Z,14.93
2017-07-05T02:09:36.142Z,15.01
2017-07-05T02:10:36.167Z,15
2017-07-05T02:11:36.264Z,15.01
2017-07-05T02:12:36.256Z,14.93
2017-07-05T02:13:36.276Z,14.95
2017-07-05T02:14:36.372Z,14.89
2017-07-05T02:15:36.375Z,14.95
2017-07-05T02:16:36.428Z,14.93
2017-07-05T02:17:36.442Z,14.89
2017-07-05T02:18:36.461Z,14.8
2017-07-05T02:19:36.506Z,14.85
2017-07-05T02:20:36.511Z,14.86
2017-07-05T02:21:36.611Z,14.8
2017-07-05T02:22:36.630Z,14.8
2017-07-05T02:23:36.632Z,14.8
2017-07-05T02:24:36.671Z,14.83
2017-07-05T02:25:36.686Z,14.85
2017-07-05T02:26:36.741Z,14.85
2017-07-05T02:27:36.777Z,14.93
2017-07-05T02:28:36.827Z,14.89
2017-07-05T02:29:36.871Z,14.97
2017-07-05T02:30:36.874Z,14.93
2017-07-05T02:31:36.904Z,14.9
2017-07-05T02:32:36.943Z,14.85
2017-07-05T02:33:36.973Z,14.8
2017-07-05T02:34:36.948Z,14.82
2017-07-05T02:35:37.025Z,14.7
2017-07-05T02:36:37.045Z,14.69
2017-07-05T02:37:37.093Z,14.75
2017-07-05T02:38:37.160Z,14.75
2017-07-05T02:39:37.151Z,14.66
2017-07-05T02:40:37.174Z,14.7
2017-07-05T02:41:37.239Z,14.69
2017-07-05T02:42:37.291Z,14.74
2017-07-05T02:43:37.281Z,14.64
2017-07-05T02:44:37.330Z,14.63
2017-07-05T02:45:37.377Z,14.59
2017-07-05T02:46:37.353Z,14.63
2017-07-05T02:47:37.405Z,14.67
2017-07-05T02:48:37.451Z,14.49
2017-07-05T02:49:37.562Z,14.51
2017-07-05T02:50:37.522Z,14.57
2017-07-05T02:51:37.591Z,14.49
2017-07-05T02:52:37.550Z,14.52
2017-07-05T02:53:37.680Z,14.45
2017-07-05T02:54:37.661Z,14.51
2017-07-05T02:55:37.685Z,14.52
2017-07-05T02:56:37.736Z,14.51
2017-07-05T02:57:37.776Z,14.46
2017-07-05T02:58:37.806Z,14.48
2017-07-05T02:59:37.809Z,14.53
2017-07-05T03:00:37.845Z,14.46
2017-07-05T03:01:37.904Z,14.63
2017-07-05T03:02:37.962Z,14.61
2017-07-05T03:03:37.992Z,14.61
2017-07-05T03:04:38.002Z,14.63
2017-07-05T03:05:38.054Z,14.61
2017-07-05T03:06:38.066Z,14.7
2017-07-05T03:07:38.100Z,14.71
2017-07-05T03:08:38.132Z,14.75
2017-07-05T03:09:38.192Z,14.77
2017-07-05T03:10:38.252Z,14.75
2017-07-05T03:11:38.238Z,14.7
2017-07-05T03:12:38.293Z,14.75
2017-07-05T03:13:38.306Z,14.77
2017-07-05T03:14:38.356Z,14.82
2017-07-05T03:15:38.328Z,14.77
2017-07-05T03:16:38.400Z,14.86
2017-07-05T03:17:38.383Z,14.9
2017-07-05T03:18:38.433Z,14.82
2017-07-05T03:19:38.449Z,14.9
2017-07-05T03:20:38.526Z,14.95
2017-07-05T03:21:38.561Z,14.89
2017-07-05T03:22:38.572Z,14.94
2017-07-05T03:23:38.592Z,14.98
2017-07-05T03:24:38.633Z,15
2017-07-05T03:25:38.693Z,15.01
2017-07-05T03:26:38.707Z,15.05
2017-07-05T03:27:38.738Z,15.02
2017-07-05T03:28:38.798Z,15.04
2017-07-05T03:29:38.827Z,15.08
2017-07-05T03:30:38.840Z,15.12
2017-07-05T03:31:38.899Z,15.13
2017-07-05T03:32:38.905Z,15.23
2017-07-05T03:33:38.956Z,15.26
2017-07-05T03:34:38.965Z,15.22
2017-07-05T03:35:38.987Z,15.23
2017-07-05T03:36:39.060Z,15.27
2017-07-05T03:37:39.099Z,15.31
2017-07-05T03:38:39.109Z,15.22
2017-07-05T03:39:39.167Z,15.33
2017-07-05T03:40:39.203Z,15.31
2017-07-05T03:41:39.204Z,15.3
2017-07-05T03:42:39.239Z,15.31
2017-07-05T03:43:39.338Z,15.33
2017-07-05T03:44:39.334Z,15.35
2017-07-05T03:45:39.343Z,15.38
2017-07-05T03:46:39.373Z,15.34
2017-07-05T03:47:39.447Z,15.44
2017-07-05T03:48:39.490Z,15.43
2017-07-05T03:49:39.492Z,15.37
2017-07-05T03:50:39.559Z,15.43
2017-07-05T03:51:39.587Z,15.4
2017-07-05T03:52:39.602Z,15.4
2017-07-05T03:53:39.604Z,15.49
2017-07-05T03:54:39.612Z,15.47
2017-07-05T03:55:39.699Z,15.44
2017-07-05T03:56:39.701Z,15.53
2017-07-05T03:57:39.774Z,15.49
2017-07-05T03:58:39.795Z,15.53
2017-07-05T03:59:39.825Z,15.59
2017-07-05T04:00:39.826Z,15.59
2017-07-05T04:01:39.867Z,15.56
2017-07-05T04:02:39.896Z,15.67
2017-07-05T04:03:39.933Z,15.7
2017-07-05T04:04:39.975Z,15.71
2017-07-05T04:05:39.996Z,15.75
2017-07-05T04:06:40.032Z,15.75
2017-07-05T04:07:40.066Z,15.77
2017-07-05T04:08:40.099Z,15.83
2017-07-05T04:09:40.123Z,15.91
2017-07-05T04:10:40.189Z,15.89
2017-07-05T04:11:40.201Z,15.86
2017-07-05T04:12:40.235Z,15.88
2017-07-05T04:13:40.267Z,15.86
2017-07-05T04:14:40.283Z,15.91
2017-07-05T04:15:40.335Z,15.92
2017-07-05T04:16:40.372Z,15.89
2017-07-05T04:17:40.401Z,15.86
2017-07-05T04:18:40.435Z,15.91
2017-07-05T04:19:40.474Z,15.83
2017-07-05T04:20:40.499Z,15.78
2017-07-05T04:21:40.586Z,15.77
2017-07-05T04:22:40.571Z,15.8
2017-07-05T04:23:40.594Z,15.77
2017-07-05T04:24:40.636Z,15.74
2017-07-05T04:25:40.748Z,15.78
2017-07-05T04:26:40.818Z,15.78
2017-07-05T04:27:40.921Z,15.8
2017-07-05T04:28:40.830Z,15.83
2017-07-05T04:29:40.881Z,15.84
2017-07-05T04:30:40.834Z,15.84
2017-07-05T04:31:40.856Z,15.89
2017-07-05T04:32:40.966Z,15.86
2017-07-05T04:33:40.939Z,15.89
2017-07-05T04:34:40.951Z,15.95
2017-07-05T04:35:41.017Z,15.92
2017-07-05T04:36:41.097Z,15.91
2017-07-05T04:37:41.080Z,15.96
2017-07-05T04:38:41.099Z,15.86
2017-07-05T04:39:41.282Z,15.95
2017-07-05T04:40:41.175Z,15.96
2017-07-05T04:41:41.193Z,15.95
2017-07-05T04:42:41.241Z,15.93
2017-07-05T04:43:41.347Z,15.93
2017-07-05T04:44:41.302Z,15.96
2017-07-05T04:45:41.388Z,15.92
2017-07-05T04:46:41.382Z,16.07
2017-07-05T04:47:41.384Z,16.07
2017-07-05T04:48:41.445Z,16.18
2017-07-05T04:49:41.483Z,16.14
2017-07-05T04:50:41.517Z,16.1
2017-07-05T04:51:41.541Z,16.11
2017-07-05T04:52:41.667Z,16.16
2017-07-05T04:53:41.683Z,16.14
2017-07-05T04:54:41.700Z,16.11
2017-07-05T04:55:41.682Z,16.1
2017-07-05T04:56:41.715Z,16.16
2017-07-05T04:57:41.746Z,16.13
2017-07-05T04:58:41.776Z,16.17
2017-07-05T04:59:41.828Z,16.06
2017-07-05T05:00:41.904Z,16.17
2017-07-05T05:01:41.917Z,16.14
2017-07-05T05:02:41.917Z,16.16
2017-07-05T05:03:42.044Z,16.14
2017-07-05T05:04:41.982Z,16.22
2017-07-05T05:05:42.003Z,16.17
2017-07-05T05:06:42.048Z,16.14
2017-07-05T05:07:42.087Z,16.16
2017-07-05T05:08:42.128Z,16.25
2017-07-05T05:09:42.152Z,16.18
2017-07-05T05:10:42.248Z,16.14
2017-07-05T05:11:42.203Z,16.22
2017-07-05T05:12:42.297Z,16.26
2017-07-05T05:13:42.274Z,16.18
2017-07-05T05:14:42.285Z,16.32
2017-07-05T05:15:42.373Z,16.26
2017-07-05T05:16:42.381Z,16.26
2017-07-05T05:17:42.426Z,16.32
2017-07-05T05:18:42.464Z,16.34
2017-07-05T05:19:42.481Z,16.32
2017-07-05T05:20:42.584Z,16.33
2017-07-05T05:21:42.525Z,16.3
2017-07-05T05:22:42.554Z,16.29
2017-07-05T05:23:42.607Z,16.33
2017-07-05T05:24:42.663Z,16.34
2017-07-05T05:25:42.672Z,16.29
2017-07-05T05:26:42.725Z,16.37
2017-07-05T05:27:42.760Z,16.37
2017-07-05T05:28:42.844Z,16.36
2017-07-05T05:29:42.877Z,16.37
2017-07-05T05:30:42.874Z,16.39
2017-07-05T05:31:42.897Z,16.37
2017-07-05T05:32:43.019Z,16.39
2017-07-05T05:33:42.964Z,16.39
2017-07-05T05:34:43.005Z,16.36
2017-07-05T05:35:43.017Z,16.42
2017-07-05T05:36:43.076Z,16.36
2017-07-05T05:37:43.099Z,16.42
2017-07-05T05:38:43.135Z,16.4
2017-07-05T05:39:43.244Z,16.42
2017-07-05T05:40:43.188Z,16.4
2017-07-05T05:41:43.241Z,16.39
2017-07-05T05:42:43.269Z,16.36
2017-07-05T05:43:43.391Z,16.34
2017-07-05T05:44:43.344Z,16.36
2017-07-05T05:45:43.369Z,16.29
2017-07-05T05:46:43.402Z,16.34
2017-07-05T05:47:43.424Z,16.29
2017-07-05T05:48:43.471Z,16.32
2017-07-05T05:49:43.507Z,16.29
2017-07-05T05:50:43.533Z,16.29
2017-07-05T05:51:43.570Z,16.34
2017-07-05T05:52:43.605Z,16.22
2017-07-05T05:53:43.626Z,16.29
2017-07-05T05:54:43.661Z,16.3
2017-07-05T05:55:43.698Z,16.27
2017-07-05T05:56:43.785Z,16.26
2017-07-05T05:57:43.764Z,16.3
2017-07-05T05:58:43.816Z,16.22
2017-07-05T05:59:43.852Z,16.33
2017-07-05T06:00:43.854Z,16.27
2017-07-05T06:01:43.950Z,16.29
2017-07-05T06:02:44.234Z,16.26
2017-07-05T06:03:44.045Z,16.17
2017-07-05T06:04:44.156Z,16.26
2017-07-05T06:05:44.078Z,16.22
2017-07-05T06:06:44.120Z,16.18
2017-07-05T06:07:44.161Z,16.14
2017-07-05T06:08:44.224Z,16.14
2017-07-05T06:09:44.166Z,16.11
2017-07-05T06:10:44.274Z,16.14
2017-07-05T06:11:44.365Z,16.21
2017-07-05T06:12:44.284Z,16.16
2017-07-05T06:13:44.421Z,16.21
2017-07-05T06:14:44.366Z,16.14
2017-07-05T06:15:44.423Z,16.22
2017-07-05T06:16:44.491Z,16.21
2017-07-05T06:17:44.446Z,16.18
2017-07-05T06:18:44.496Z,16.21
2017-07-05T06:19:44.522Z,16.22
2017-07-05T06:20:44.561Z,16.25
2017-07-05T06:21:44.590Z,16.17
2017-07-05T06:22:44.622Z,16.22
2017-07-05T06:23:44.655Z,16.25
2017-07-05T06:24:44.984Z,16.17
2017-07-05T06:25:44.739Z,16.1
2017-07-05T06:26:44.773Z,16.11
2017-07-05T06:27:44.758Z,16.07
2017-07-05T06:28:44.875Z,16.11
2017-07-05T06:29:44.873Z,16.13
2017-07-05T06:30:44.901Z,16.14
2017-07-05T06:31:44.942Z,16.17
2017-07-05T06:32:44.945Z,16.13
2017-07-05T06:33:45.108Z,16.22
2017-07-05T06:34:45.090Z,16.25
2017-07-05T06:35:45.169Z,16.3
2017-07-05T06:36:45.102Z,16.36
2017-07-05T06:37:45.117Z,16.4
2017-07-05T06:38:45.172Z,16.45
2017-07-05T06:39:45.296Z,16.52
2017-07-05T06:40:45.276Z,16.65
2017-07-05T06:41:45.241Z,16.69
2017-07-05T06:42:45.292Z,16.69
2017-07-05T06:43:45.606Z,16.73
2017-07-05T06:44:45.360Z,16.66
2017-07-05T06:45:45.413Z,16.77
2017-07-05T06:46:45.634Z,16.77
2017-07-05T06:47:45.496Z,16.7
2017-07-05T06:48:45.481Z,16.73
2017-07-05T06:49:45.545Z,16.69
2017-07-05T06:50:45.675Z,16.73
2017-07-05T06:51:45.594Z,16.66
2017-07-05T06:52:45.669Z,16.7
2017-07-05T06:53:45.699Z,16.7
2017-07-05T06:54:45.724Z,16.69
2017-07-05T06:55:45.728Z,16.72
2017-07-05T06:56:45.776Z,16.74
2017-07-05T06:57:45.975Z,16.73
2017-07-05T06:58:45.931Z,16.76
2017-07-05T06:59:45.921Z,16.69
2017-07-05T07:00:45.906Z,16.73
2017-07-05T07:01:46.062Z,16.76
2017-07-05T07:02:45.964Z,16.77
2017-07-05T07:03:45.978Z,16.73
2017-07-05T07:04:46.048Z,16.77
2017-07-05T07:05:46.441Z,16.76
2017-07-05T07:06:46.205Z,16.66
2017-07-05T07:07:46.145Z,16.69
2017-07-05T07:08:46.186Z,16.76
2017-07-05T07:09:46.282Z,16.74
2017-07-05T07:10:46.395Z,16.73
2017-07-05T07:11:46.277Z,16.73
2017-07-05T07:12:46.320Z,16.63
2017-07-05T07:13:46.439Z,16.69
2017-07-05T07:14:46.401Z,16.72
2017-07-05T07:15:46.565Z,16.69
2017-07-05T07:16:46.435Z,16.72
2017-07-05T07:17:46.475Z,16.67
2017-07-05T07:18:46.499Z,16.7
2017-07-05T07:19:46.556Z,16.73
2017-07-05T07:20:46.684Z,16.81
2017-07-05T07:21:46.666Z,16.8
2017-07-05T07:22:46.642Z,16.77
2017-07-05T07:23:46.743Z,16.84
2017-07-05T07:24:46.796Z,16.82
2017-07-05T07:25:46.756Z,16.99
2017-07-05T07:26:46.787Z,16.87
2017-07-05T07:27:46.891Z,16.9
2017-07-05T07:28:47.252Z,16.92
2017-07-05T07:29:46.894Z,16.87
2017-07-05T07:30:47.134Z,16.87
2017-07-05T07:31:46.948Z,16.9
2017-07-05T07:32:47.015Z,16.91
2017-07-05T07:33:47.026Z,16.87
2017-07-05T07:34:47.062Z,16.9
2017-07-05T07:35:47.108Z,16.91
2017-07-05T07:36:47.163Z,16.87
2017-07-05T07:37:47.187Z,16.85
2017-07-05T07:38:47.199Z,16.82
2017-07-05T07:39:47.457Z,16.8
2017-07-05T07:40:47.305Z,16.73
2017-07-05T07:41:47.359Z,16.69
2017-07-05T07:42:47.571Z,16.52
2017-07-05T07:43:47.400Z,16.45
2017-07-05T07:44:47.417Z,16.42
2017-07-05T07:45:47.486Z,16.42
2017-07-05T07:46:47.501Z,16.34
2017-07-05T07:47:47.508Z,16.36
2017-07-05T07:48:47.561Z,16.34
2017-07-05T07:49:47.702Z,16.4
2017-07-05T07:50:47.657Z,16.49
2017-07-05T07:51:47.700Z,16.54
2017-07-05T07:52:47.705Z,16.62
2017-07-05T07:53:47.747Z,16.67
2017-07-05T07:54:47.756Z,16.74
2017-07-05T07:55:47.798Z,16.74
2017-07-05T07:56:47.815Z,16.84
2017-07-05T07:57:47.849Z,16.85
2017-07-05T07:58:47.894Z,17
2017-07-05T07:59:47.954Z,16.91
2017-07-05T08:00:47.982Z,16.85
2017-07-05T08:01:48.150Z,16.82
2017-07-05T08:02:48.014Z,16.9
2017-07-05T08:03:48.069Z,16.84
2017-07-05T08:04:48.103Z,16.72
2017-07-05T08:05:48.184Z,16.77
2017-07-05T08:06:48.277Z,16.87
2017-07-05T08:07:48.233Z,16.94
2017-07-05T08:08:48.220Z,17.07
2017-07-05T08:09:48.239Z,17.22
2017-07-05T08:10:48.673Z,17.25
2017-07-05T08:11:48.736Z,17.35
2017-07-05T08:12:48.350Z,17.3
2017-07-05T08:13:48.713Z,17.35
2017-07-05T08:14:48.430Z,17.4
2017-07-05T08:15:48.462Z,17.46
2017-07-05T08:16:48.511Z,17.39
2017-07-05T08:17:48.555Z,17.32
2017-07-05T08:18:48.583Z,17.38
2017-07-05T08:19:48.609Z,17.5
2017-07-05T08:20:48.718Z,17.42
2017-07-05T08:21:48.664Z,17.47
2017-07-05T08:22:48.699Z,17.55
2017-07-05T08:23:49.019Z,17.68
2017-07-05T08:24:48.768Z,17.69
2017-07-05T08:25:48.928Z,17.8
2017-07-05T08:26:48.826Z,17.94
2017-07-05T08:27:48.885Z,18.06
2017-07-05T08:28:49.009Z,17.98
2017-07-05T08:29:49.025Z,18.08
2017-07-05T08:30:49.017Z,18.1
2017-07-05T08:31:49.219Z,18.21
2017-07-05T08:32:49.031Z,18.14
2017-07-05T08:33:49.319Z,18.11
2017-07-05T08:34:49.098Z,18.13
2017-07-05T08:35:49.199Z,17.98
2017-07-05T08:36:49.191Z,17.94
2017-07-05T08:37:49.227Z,18.01
2017-07-05T08:38:49.298Z,18.02
2017-07-05T08:39:49.282Z,17.99
2017-07-05T08:40:49.300Z,18.03
2017-07-05T08:41:49.344Z,18.02
2017-07-05T08:42:49.695Z,17.98
2017-07-05T08:43:49.412Z,17.95
2017-07-05T08:44:49.573Z,17.95
2017-07-05T08:45:49.516Z,17.99
2017-07-05T08:46:49.551Z,18.01
2017-07-05T08:47:49.573Z,17.99
2017-07-05T08:48:49.583Z,18.13
2017-07-05T08:49:49.624Z,18.32
2017-07-05T08:50:49.661Z,18.42
2017-07-05T08:51:49.683Z,18.61
2017-07-05T08:52:49.980Z,18.63
2017-07-05T08:53:49.758Z,19
2017-07-05T08:54:49.858Z,19.38
2017-07-05T08:55:49.881Z,20
2017-07-05T08:56:49.855Z,20.81
2017-07-05T08:57:50.013Z,22.12
2017-07-05T08:58:49.948Z,23.72
2017-07-05T08:59:50.101Z,25.33
2017-07-05T09:00:50.010Z,26.54
2017-07-05T09:01:50.286Z,27.09
2017-07-05T09:02:50.403Z,27.19
2017-07-05T09:03:50.149Z,26.99
2017-07-05T09:04:50.202Z,26.67
2017-07-05T09:05:50.510Z,26.49
2017-07-05T09:06:50.631Z,26.52
2017-07-05T09:07:50.282Z,26.44
2017-07-05T09:08:50.309Z,26.19
2017-07-05T09:09:50.323Z,25.97
2017-07-05T09:10:50.362Z,25.64
2017-07-05T09:11:50.445Z,25.44
2017-07-05T09:12:50.472Z,25.2
2017-07-05T09:13:50.491Z,25.01
2017-07-05T09:14:50.656Z,24.89
2017-07-05T09:15:50.605Z,24.87
2017-07-05T09:16:50.920Z,24.87
2017-07-05T09:17:50.689Z,24.9
2017-07-05T09:18:50.747Z,24.92
2017-07-05T09:19:50.956Z,25.12
2017-07-05T09:20:50.779Z,25.32
2017-07-05T09:21:50.905Z,25.44
2017-07-05T09:22:50.871Z,25.38
2017-07-05T09:23:50.872Z,25.48
2017-07-05T09:24:51.166Z,25.32
2017-07-05T09:25:51.233Z,25.2
2017-07-05T09:26:51.205Z,25
2017-07-05T09:27:51.068Z,24.96
2017-07-05T09:28:51.117Z,25.17
2017-07-05T09:29:51.427Z,25.47
2017-07-05T09:30:51.430Z,25.85
2017-07-05T09:31:51.217Z,26.04
2017-07-05T09:32:51.468Z,26.37
2017-07-05T09:33:51.489Z,26.54
2017-07-05T09:34:51.294Z,26.71
2017-07-05T09:35:51.351Z,26.93
2017-07-05T09:36:51.470Z,27.16
2017-07-05T09:37:51.436Z,27.49
2017-07-05T09:38:51.488Z,27.81
2017-07-05T09:39:51.529Z,28.06
2017-07-05T09:40:52.804Z,28.17
2017-07-05T09:41:52.131Z,28.3
2017-07-05T09:42:51.732Z,28.49
2017-07-05T09:43:52.282Z,28.72
2017-07-05T09:44:51.856Z,28.92
2017-07-05T09:45:51.842Z,28.95
2017-07-05T09:46:52.083Z,28.63
2017-07-05T09:47:51.915Z,28.35
2017-07-05T09:48:51.873Z,28.17
2017-07-05T09:49:52.993Z,27.96
2017-07-05T09:50:51.990Z,27.94
2017-07-05T09:51:52.007Z,27.89
2017-07-05T09:52:52.113Z,28.08
2017-07-05T09:53:52.221Z,28.11
2017-07-05T09:54:52.250Z,28.08
2017-07-05T09:55:52.870Z,28.03
2017-07-05T09:56:52.528Z,27.91
2017-07-05T09:57:52.517Z,27.81
2017-07-05T09:58:52.973Z,27.59
2017-07-05T09:59:52.566Z,27.37
2017-07-05T10:00:52.539Z,27.26
2017-07-05T10:01:52.587Z,27.21
2017-07-05T10:02:52.679Z,27.48
2017-07-05T10:03:52.892Z,28.31
2017-07-05T10:04:52.543Z,29.87
2017-07-05T10:05:52.554Z,31.12
2017-07-05T10:06:52.630Z,31.72
2017-07-05T10:07:52.805Z,32.72
2017-07-05T10:08:53.544Z,33.5
2017-07-05T10:09:52.783Z,33.17
2017-07-05T10:10:53.511Z,32.49
2017-07-05T10:11:52.945Z,31.95
2017-07-05T10:12:53.314Z,32.35
2017-07-05T10:13:52.928Z,33.63
2017-07-05T10:14:52.932Z,34.41
2017-07-05T10:15:53.130Z,34.55
2017-07-05T10:16:53.095Z,34.06
2017-07-05T10:17:53.621Z,33.18
2017-07-05T10:18:53.357Z,32.56
2017-07-05T10:19:53.228Z,32.89
2017-07-05T10:20:53.205Z,33.26
2017-07-05T10:21:53.333Z,33.09
2017-07-05T10:22:53.758Z,33.9
2017-07-05T10:23:53.670Z,34.9
2017-07-05T10:24:54.314Z,35.58
2017-07-05T10:25:53.637Z,35.26
2017-07-05T10:26:53.561Z,34.21
2017-07-05T10:27:53.620Z,33.17
2017-07-05T10:28:53.567Z,32.86
2017-07-05T10:29:53.678Z,33.62
2017-07-05T10:30:54.242Z,34.58
2017-07-05T10:31:53.654Z,35.67
2017-07-05T10:32:54.282Z,36.75
2017-07-05T10:33:54.265Z,37.04
2017-07-05T10:34:53.783Z,36.58
2017-07-05T10:35:54.011Z,36.21
2017-07-05T10:36:53.907Z,35.96
2017-07-05T10:37:54.011Z,35.52
2017-07-05T10:38:54.111Z,34.78
2017-07-05T10:39:53.976Z,34.49
2017-07-05T10:40:55.183Z,34.71
2017-07-05T10:41:54.566Z,34.51
2017-07-05T10:42:54.996Z,34.18
2017-07-05T10:43:54.359Z,33.46
2017-07-05T10:44:54.631Z,32.76
2017-07-05T10:45:54.317Z,32.27
2017-07-05T10:46:54.328Z,31.93
2017-07-05T10:47:54.386Z,31.77
2017-07-05T10:48:54.424Z,31.59
2017-07-05T10:49:55.197Z,31.67
2017-07-05T10:50:55.118Z,31.56
2017-07-05T10:51:54.496Z,31.44
2017-07-05T10:52:54.949Z,30.81
2017-07-05T10:53:54.847Z,30.73
2017-07-05T10:54:54.810Z,30.97
2017-07-05T10:55:54.692Z,31.15
2017-07-05T10:56:54.923Z,31.36
2017-07-05T10:57:55.289Z,31.36
2017-07-05T10:58:55.143Z,31.4
2017-07-05T10:59:54.842Z,32.06
2017-07-05T11:00:55.320Z,33.09
2017-07-05T11:01:55.005Z,34.15
2017-07-05T11:02:55.262Z,34.63
2017-07-05T11:03:55.041Z,34.77
2017-07-05T11:04:55.131Z,34.59
2017-07-05T11:05:55.269Z,33.96
2017-07-05T11:06:55.372Z,33.24
2017-07-05T11:07:55.153Z,32.59
2017-07-05T11:08:55.536Z,31.78
2017-07-05T11:09:55.259Z,31.31
2017-07-05T11:10:55.499Z,31.22
2017-07-05T11:11:55.615Z,31.31
2017-07-05T11:12:55.452Z,31.16
2017-07-05T11:13:55.446Z,30.96
2017-07-05T11:14:55.697Z,30.71
2017-07-05T11:15:55.510Z,30.62
2017-07-05T11:16:55.490Z,30.66
2017-07-05T11:17:55.675Z,30.62
2017-07-05T11:18:55.845Z,30.57
2017-07-05T11:19:56.987Z,30.42
2017-07-05T11:20:55.689Z,30.4
2017-07-05T11:21:56.038Z,30.16
2017-07-05T11:22:55.737Z,30.03
2017-07-05T11:23:55.828Z,29.85
2017-07-05T11:24:56.038Z,29.54
2017-07-05T11:25:56.134Z,29.2
2017-07-05T11:26:56.421Z,28.79
2017-07-05T11:27:56.205Z,28.24
2017-07-05T11:28:56.154Z,27.84
2017-07-05T11:29:56.305Z,27.41
2017-07-05T11:30:56.621Z,27.13
2017-07-05T11:31:56.531Z,26.82
2017-07-05T11:32:56.405Z,26.74
2017-07-05T11:33:56.403Z,26.56
2017-07-05T11:34:56.347Z,26.41
2017-07-05T11:35:56.831Z,26.32
2017-07-05T11:36:56.535Z,26.03
2017-07-05T11:37:56.619Z,25.85
2017-07-05T11:38:56.636Z,25.67
2017-07-05T11:39:56.731Z,25.52
2017-07-05T11:40:57.047Z,25.45
2017-07-05T11:41:56.831Z,25.48
2017-07-05T11:42:56.587Z,25.67
2017-07-05T11:43:56.899Z,25.94
2017-07-05T11:44:57.146Z,26.12
2017-07-05T11:45:57.157Z,26.38
2017-07-05T11:46:56.997Z,26.63
2017-07-05T11:47:56.787Z,26.75
2017-07-05T11:48:57.010Z,26.71
2017-07-05T11:49:57.107Z,26.45
2017-07-05T11:50:56.881Z,26.44
2017-07-05T11:51:57.283Z,26.37
2017-07-05T11:52:57.199Z,26.2
2017-07-05T11:53:57.232Z,25.88
2017-07-05T11:54:57.302Z,25.63
2017-07-05T11:55:57.052Z,25.6
2017-07-05T11:56:57.180Z,25.51
2017-07-05T11:57:57.240Z,25.54
2017-07-05T11:58:57.378Z,25.7
2017-07-05T11:59:57.322Z,25.82
2017-07-05T12:00:57.281Z,25.97
2017-07-05T12:01:57.461Z,26.11
2017-07-05T12:02:57.536Z,26.22
2017-07-05T12:03:57.829Z,26.34
2017-07-05T12:04:57.491Z,26.32
2017-07-05T12:05:57.470Z,26.57
2017-07-05T12:06:57.684Z,26.75
2017-07-05T12:07:57.812Z,26.94
2017-07-05T12:08:57.756Z,27.04
2017-07-05T12:09:57.656Z,27.09
2017-07-05T12:10:58.745Z,27.12
2017-07-05T12:11:58.107Z,27.13
2017-07-05T12:12:57.765Z,27.01
2017-07-05T12:13:57.772Z,27.04
2017-07-05T12:14:57.888Z,27.05
2017-07-05T12:15:58.210Z,26.93
2017-07-05T12:16:58.231Z,26.84
2017-07-05T12:17:58.322Z,26.75
2017-07-05T12:18:58.686Z,26.63
2017-07-05T12:19:58.334Z,26.53
2017-07-05T12:20:58.451Z,26.42
2017-07-05T12:21:58.091Z,26.35
2017-07-05T12:22:58.481Z,26.24
2017-07-05T12:23:58.368Z,26.11
2017-07-05T12:24:58.374Z,26.12
2017-07-05T12:25:58.638Z,25.82
2017-07-05T12:26:58.439Z,25.75
2017-07-05T12:27:58.921Z,25.74
2017-07-05T12:28:58.773Z,25.67
2017-07-05T12:29:58.545Z,25.64
2017-07-05T12:30:58.576Z,25.67
2017-07-05T12:31:58.722Z,25.62
2017-07-05T12:32:59.131Z,25.74
2017-07-05T12:33:59.089Z,25.79
2017-07-05T12:34:58.859Z,25.69
2017-07-05T12:35:58.631Z,25.49
2017-07-05T12:36:59.183Z,25.39
2017-07-05T12:37:58.810Z,25.48
2017-07-05T12:38:58.779Z,25.38
2017-07-05T12:39:58.864Z,25.42
2017-07-05T12:40:58.847Z,25.52
2017-07-05T12:41:59.603Z,25.52
2017-07-05T12:42:59.806Z,25.48
2017-07-05T12:43:59.014Z,25.45
2017-07-05T12:44:59.394Z,25.45
2017-07-05T12:45:59.411Z,25.41
2017-07-05T12:46:59.571Z,25.49
2017-07-05T12:47:59.272Z,25.59
2017-07-05T12:48:59.167Z,25.66
2017-07-05T12:49:59.160Z,25.81
2017-07-05T12:50:59.414Z,25.86
2017-07-05T12:51:59.347Z,25.81
2017-07-05T12:52:59.342Z,25.99
2017-07-05T12:53:59.397Z,26.04
2017-07-05T12:54:59.512Z,26.03
2017-07-05T12:55:59.874Z,26.01
2017-07-05T12:56:59.832Z,25.88